sensor_id;sensor_type;location;lat;lon;timestamp;temperature;humidity
24412;DHT22;12544;46.760;15.942;2023-12-20T00:01:23;1.10;99.90
24412;DHT22;12544;46.760;15.942;2023-12-20T00:03:49;1.20;99.90
24412;DHT22;12544;46.760;15.942;2023-12-20T00:06:14;1.40;99.90
24412;DHT22;12544;46.760;15.942;2023-12-20T00:08:40;1.60;99.90
24412;DHT22;12544;46.760;15.942;2023-12-20T00:11:06;1.80;99.90
24412;DHT22;12544;46.760;15.942;2023-12-20T00:13:31;1.70;99.90
24412;DHT22;12544;46.760;15.942;2023-12-20T00:15:57;1.60;99.90
24412;DHT22;12544;46.760;15.942;2023-12-20T00:18:23;1.40;99.90
24412;DHT22;12544;46.760;15.942;2023-12-20T00:20:48;1.20;99.90
24412;DHT22;12544;46.760;15.942;2023-12-20T00:23:14;1.10;99.90
24412;DHT22;12544;46.760;15.942;2023-12-20T00:25:40;1.00;99.90
24412;DHT22;12544;46.760;15.942;2023-12-20T00:28:06;0.80;99.90
24412;DHT22;12544;46.760;15.942;2023-12-20T00:30:31;0.80;99.90
24412;DHT22;12544;46.760;15.942;2023-12-20T00:32:57;0.70;99.90
24412;DHT22;12544;46.760;15.942;2023-12-20T00:35:23;0.50;99.90
24412;DHT22;12544;46.760;15.942;2023-12-20T00:37:49;0.40;99.90
24412;DHT22;12544;46.760;15.942;2023-12-20T00:40:14;0.40;99.90
24412;DHT22;12544;46.760;15.942;2023-12-20T00:42:40;0.30;99.90
24412;DHT22;12544;46.760;15.942;2023-12-20T00:45:06;0.30;99.90
24412;DHT22;12544;46.760;15.942;2023-12-20T00:47:32;0.20;99.90
24412;DHT22;12544;46.760;15.942;2023-12-20T00:49:58;0.20;99.90
24412;DHT22;12544;46.760;15.942;2023-12-20T00:52:24;0.10;99.90
24412;DHT22;12544;46.760;15.942;2023-12-20T00:54:50;0.10;99.90
24412;DHT22;12544;46.760;15.942;2023-12-20T00:57:16;0.10;99.90
24412;DHT22;12544;46.760;15.942;2023-12-20T00:59:41;0.10;99.90
24412;DHT22;12544;46.760;15.942;2023-12-20T01:02:07;0.10;99.90
24412;DHT22;12544;46.760;15.942;2023-12-20T01:04:32;0.20;99.90
24412;DHT22;12544;46.760;15.942;2023-12-20T01:06:58;0.30;99.90
24412;DHT22;12544;46.760;15.942;2023-12-20T01:09:24;0.30;99.90
24412;DHT22;12544;46.760;15.942;2023-12-20T01:11:52;0.30;99.90
24412;DHT22;12544;46.760;15.942;2023-12-20T01:14:17;0.30;99.90
24412;DHT22;12544;46.760;15.942;2023-12-20T01:16:43;0.40;99.90
24412;DHT22;12544;46.760;15.942;2023-12-20T01:19:09;0.40;99.90
24412;DHT22;12544;46.760;15.942;2023-12-20T01:21:34;0.40;99.90
24412;DHT22;12544;46.760;15.942;2023-12-20T01:24:00;0.50;99.90
24412;DHT22;12544;46.760;15.942;2023-12-20T01:26:26;0.40;99.90
24412;DHT22;12544;46.760;15.942;2023-12-20T01:28:51;0.50;99.90
24412;DHT22;12544;46.760;15.942;2023-12-20T01:31:17;0.40;99.90
24412;DHT22;12544;46.760;15.942;2023-12-20T01:33:43;0.30;99.90
24412;DHT22;12544;46.760;15.942;2023-12-20T01:36:08;0.20;99.90
24412;DHT22;12544;46.760;15.942;2023-12-20T01:38:34;0.00;99.90
24412;DHT22;12544;46.760;15.942;2023-12-20T01:41:00;0.00;99.90
24412;DHT22;12544;46.760;15.942;2023-12-20T01:43:25;0.00;99.90
24412;DHT22;12544;46.760;15.942;2023-12-20T01:45:51;-0.10;99.90
24412;DHT22;12544;46.760;15.942;2023-12-20T01:48:18;-0.10;99.90
24412;DHT22;12544;46.760;15.942;2023-12-20T01:50:45;-0.20;99.90
24412;DHT22;12544;46.760;15.942;2023-12-20T01:53:12;-0.20;99.90
24412;DHT22;12544;46.760;15.942;2023-12-20T01:55:41;-0.30;99.90
24412;DHT22;12544;46.760;15.942;2023-12-20T01:58:10;-0.30;99.90
24412;DHT22;12544;46.760;15.942;2023-12-20T02:00:37;-0.30;99.90
24412;DHT22;12544;46.760;15.942;2023-12-20T02:03:03;-0.40;99.90
24412;DHT22;12544;46.760;15.942;2023-12-20T02:05:30;-0.40;99.90
24412;DHT22;12544;46.760;15.942;2023-12-20T02:07:56;-0.40;99.90
24412;DHT22;12544;46.760;15.942;2023-12-20T02:10:21;-0.40;99.90
24412;DHT22;12544;46.760;15.942;2023-12-20T02:12:47;-0.40;99.90
24412;DHT22;12544;46.760;15.942;2023-12-20T02:15:13;-0.40;99.90
24412;DHT22;12544;46.760;15.942;2023-12-20T02:17:39;-0.50;99.90
24412;DHT22;12544;46.760;15.942;2023-12-20T02:20:06;-0.60;99.90
24412;DHT22;12544;46.760;15.942;2023-12-20T02:22:31;-0.70;99.90
24412;DHT22;12544;46.760;15.942;2023-12-20T02:24:57;-0.70;99.90
24412;DHT22;12544;46.760;15.942;2023-12-20T02:27:23;-0.80;99.90
24412;DHT22;12544;46.760;15.942;2023-12-20T02:29:50;-0.70;99.90
24412;DHT22;12544;46.760;15.942;2023-12-20T02:32:17;-0.70;99.90
24412;DHT22;12544;46.760;15.942;2023-12-20T02:34:43;-0.70;99.90
24412;DHT22;12544;46.760;15.942;2023-12-20T02:37:08;-0.70;99.90
24412;DHT22;12544;46.760;15.942;2023-12-20T02:39:34;-0.80;99.90
24412;DHT22;12544;46.760;15.942;2023-12-20T02:41:59;-0.80;99.90
24412;DHT22;12544;46.760;15.942;2023-12-20T02:44:25;-0.90;99.90
24412;DHT22;12544;46.760;15.942;2023-12-20T02:46:50;-1.00;99.90
24412;DHT22;12544;46.760;15.942;2023-12-20T02:49:16;-1.00;99.90
24412;DHT22;12544;46.760;15.942;2023-12-20T02:51:42;-1.00;99.90
24412;DHT22;12544;46.760;15.942;2023-12-20T02:54:07;-1.10;99.90
24412;DHT22;12544;46.760;15.942;2023-12-20T02:56:33;-1.30;99.90
24412;DHT22;12544;46.760;15.942;2023-12-20T02:58:59;-1.40;99.90
24412;DHT22;12544;46.760;15.942;2023-12-20T03:01:25;-1.40;99.90
24412;DHT22;12544;46.760;15.942;2023-12-20T03:03:50;-1.40;99.90
24412;DHT22;12544;46.760;15.942;2023-12-20T03:06:18;-1.40;99.90
24412;DHT22;12544;46.760;15.942;2023-12-20T03:08:44;-1.30;99.90
24412;DHT22;12544;46.760;15.942;2023-12-20T03:11:10;-1.30;99.90
24412;DHT22;12544;46.760;15.942;2023-12-20T03:13:35;-1.40;99.90
24412;DHT22;12544;46.760;15.942;2023-12-20T03:16:01;-1.40;99.90
24412;DHT22;12544;46.760;15.942;2023-12-20T03:18:26;-1.40;99.90
24412;DHT22;12544;46.760;15.942;2023-12-20T03:20:53;-1.40;99.90
24412;DHT22;12544;46.760;15.942;2023-12-20T03:23:19;-1.40;99.90
24412;DHT22;12544;46.760;15.942;2023-12-20T03:25:45;-1.40;99.90
24412;DHT22;12544;46.760;15.942;2023-12-20T03:28:10;-1.40;99.90
24412;DHT22;12544;46.760;15.942;2023-12-20T03:30:36;-1.40;99.90
24412;DHT22;12544;46.760;15.942;2023-12-20T03:33:01;-1.40;99.90
24412;DHT22;12544;46.760;15.942;2023-12-20T03:35:27;-1.30;99.90
24412;DHT22;12544;46.760;15.942;2023-12-20T03:37:53;-1.30;99.90
24412;DHT22;12544;46.760;15.942;2023-12-20T03:40:18;-1.30;99.90
24412;DHT22;12544;46.760;15.942;2023-12-20T03:42:44;-1.20;99.90
24412;DHT22;12544;46.760;15.942;2023-12-20T03:45:09;-1.20;99.90
24412;DHT22;12544;46.760;15.942;2023-12-20T03:47:35;-1.00;99.90
24412;DHT22;12544;46.760;15.942;2023-12-20T03:50:01;-0.90;99.90
24412;DHT22;12544;46.760;15.942;2023-12-20T03:52:27;-0.80;99.90
24412;DHT22;12544;46.760;15.942;2023-12-20T03:54:53;-0.70;99.90
24412;DHT22;12544;46.760;15.942;2023-12-20T03:57:19;-0.50;99.90
24412;DHT22;12544;46.760;15.942;2023-12-20T03:59:44;-0.50;99.90
24412;DHT22;12544;46.760;15.942;2023-12-20T04:02:10;-0.40;99.90
24412;DHT22;12544;46.760;15.942;2023-12-20T04:04:35;-0.40;99.90
24412;DHT22;12544;46.760;15.942;2023-12-20T04:07:01;-0.40;99.90
24412;DHT22;12544;46.760;15.942;2023-12-20T04:09:26;-0.30;99.90
24412;DHT22;12544;46.760;15.942;2023-12-20T04:11:52;-0.40;99.90
24412;DHT22;12544;46.760;15.942;2023-12-20T04:14:18;-0.30;99.90
24412;DHT22;12544;46.760;15.942;2023-12-20T04:16:43;-0.40;99.90
24412;DHT22;12544;46.760;15.942;2023-12-20T04:19:09;-0.40;99.90
24412;DHT22;12544;46.760;15.942;2023-12-20T04:21:34;-0.40;99.90
24412;DHT22;12544;46.760;15.942;2023-12-20T04:24:00;-0.40;99.90
24412;DHT22;12544;46.760;15.942;2023-12-20T04:26:25;-0.40;99.90
24412;DHT22;12544;46.760;15.942;2023-12-20T04:28:51;-0.30;99.90
24412;DHT22;12544;46.760;15.942;2023-12-20T04:31:16;-0.20;99.90
24412;DHT22;12544;46.760;15.942;2023-12-20T04:33:42;-0.20;99.90
24412;DHT22;12544;46.760;15.942;2023-12-20T04:36:08;-0.20;99.90
24412;DHT22;12544;46.760;15.942;2023-12-20T04:38:34;-0.10;99.90
24412;DHT22;12544;46.760;15.942;2023-12-20T04:41:00;-0.20;99.90
24412;DHT22;12544;46.760;15.942;2023-12-20T04:43:25;-0.20;99.90
24412;DHT22;12544;46.760;15.942;2023-12-20T04:45:51;-0.20;99.90
24412;DHT22;12544;46.760;15.942;2023-12-20T04:48:17;-0.20;99.90
24412;DHT22;12544;46.760;15.942;2023-12-20T04:50:42;-0.10;99.90
24412;DHT22;12544;46.760;15.942;2023-12-20T04:53:08;-0.20;99.90
24412;DHT22;12544;46.760;15.942;2023-12-20T04:55:33;-0.20;99.90
24412;DHT22;12544;46.760;15.942;2023-12-20T04:57:59;-0.20;99.90
24412;DHT22;12544;46.760;15.942;2023-12-20T05:00:24;-0.40;99.90
24412;DHT22;12544;46.760;15.942;2023-12-20T05:02:50;-0.40;99.90
24412;DHT22;12544;46.760;15.942;2023-12-20T05:05:16;-0.50;99.90
24412;DHT22;12544;46.760;15.942;2023-12-20T05:07:43;-0.70;99.90
24412;DHT22;12544;46.760;15.942;2023-12-20T05:10:09;-0.80;99.90
24412;DHT22;12544;46.760;15.942;2023-12-20T05:12:35;-0.90;99.90
24412;DHT22;12544;46.760;15.942;2023-12-20T05:15:00;-1.00;99.90
24412;DHT22;12544;46.760;15.942;2023-12-20T05:17:26;-1.00;99.90
24412;DHT22;12544;46.760;15.942;2023-12-20T05:19:52;-1.00;99.90
24412;DHT22;12544;46.760;15.942;2023-12-20T05:22:19;-0.90;99.90
24412;DHT22;12544;46.760;15.942;2023-12-20T05:24:45;-0.90;99.90
24412;DHT22;12544;46.760;15.942;2023-12-20T05:27:10;-0.80;99.90
24412;DHT22;12544;46.760;15.942;2023-12-20T05:29:37;-0.70;99.90
24412;DHT22;12544;46.760;15.942;2023-12-20T05:32:03;-0.80;99.90
24412;DHT22;12544;46.760;15.942;2023-12-20T05:34:32;-0.90;99.90
24412;DHT22;12544;46.760;15.942;2023-12-20T05:36:58;-1.00;99.90
24412;DHT22;12544;46.760;15.942;2023-12-20T05:39:23;-1.20;99.90
24412;DHT22;12544;46.760;15.942;2023-12-20T05:41:49;-1.40;99.90
24412;DHT22;12544;46.760;15.942;2023-12-20T05:44:15;-1.20;99.90
24412;DHT22;12544;46.760;15.942;2023-12-20T05:46:40;-1.20;99.90
24412;DHT22;12544;46.760;15.942;2023-12-20T05:49:06;-1.00;99.90
24412;DHT22;12544;46.760;15.942;2023-12-20T05:51:32;-1.00;99.90
24412;DHT22;12544;46.760;15.942;2023-12-20T05:53:58;-1.00;99.90
24412;DHT22;12544;46.760;15.942;2023-12-20T05:56:24;-1.10;99.90
24412;DHT22;12544;46.760;15.942;2023-12-20T05:58:49;-1.10;99.90
24412;DHT22;12544;46.760;15.942;2023-12-20T06:01:15;-1.20;99.90
24412;DHT22;12544;46.760;15.942;2023-12-20T06:03:44;-1.30;99.90
24412;DHT22;12544;46.760;15.942;2023-12-20T06:06:11;-1.30;99.90
24412;DHT22;12544;46.760;15.942;2023-12-20T06:08:38;-1.10;99.90
24412;DHT22;12544;46.760;15.942;2023-12-20T06:11:03;-1.00;99.90
24412;DHT22;12544;46.760;15.942;2023-12-20T06:13:30;-1.00;99.90
24412;DHT22;12544;46.760;15.942;2023-12-20T06:15:55;-1.00;99.90
24412;DHT22;12544;46.760;15.942;2023-12-20T06:18:21;-1.10;99.90
24412;DHT22;12544;46.760;15.942;2023-12-20T06:20:46;-1.10;99.90
24412;DHT22;12544;46.760;15.942;2023-12-20T06:23:12;-1.00;99.90
24412;DHT22;12544;46.760;15.942;2023-12-20T06:25:38;-0.60;99.90
24412;DHT22;12544;46.760;15.942;2023-12-20T06:28:03;-0.60;99.90
24412;DHT22;12544;46.760;15.942;2023-12-20T06:30:29;-0.50;99.90
24412;DHT22;12544;46.760;15.942;2023-12-20T06:32:55;-0.60;99.90
24412;DHT22;12544;46.760;15.942;2023-12-20T06:35:23;-0.70;99.90
24412;DHT22;12544;46.760;15.942;2023-12-20T06:37:48;-0.50;99.90
24412;DHT22;12544;46.760;15.942;2023-12-20T06:40:14;-0.30;99.90
24412;DHT22;12544;46.760;15.942;2023-12-20T06:42:39;-0.10;99.90
24412;DHT22;12544;46.760;15.942;2023-12-20T06:45:05;-0.20;99.90
24412;DHT22;12544;46.760;15.942;2023-12-20T06:47:31;-0.40;99.90
24412;DHT22;12544;46.760;15.942;2023-12-20T06:49:57;-0.60;99.90
24412;DHT22;12544;46.760;15.942;2023-12-20T06:52:22;-0.70;99.90
24412;DHT22;12544;46.760;15.942;2023-12-20T06:54:48;-0.90;99.90
24412;DHT22;12544;46.760;15.942;2023-12-20T06:57:13;-1.10;99.90
24412;DHT22;12544;46.760;15.942;2023-12-20T06:59:40;-1.20;99.90
24412;DHT22;12544;46.760;15.942;2023-12-20T07:02:06;-1.30;99.90
24412;DHT22;12544;46.760;15.942;2023-12-20T07:04:31;-1.30;99.90
24412;DHT22;12544;46.760;15.942;2023-12-20T07:06:57;-1.30;99.90
24412;DHT22;12544;46.760;15.942;2023-12-20T07:09:26;-1.20;99.90
24412;DHT22;12544;46.760;15.942;2023-12-20T07:11:52;-1.20;99.90
24412;DHT22;12544;46.760;15.942;2023-12-20T07:14:17;-1.20;99.90
24412;DHT22;12544;46.760;15.942;2023-12-20T07:16:43;-1.00;99.90
24412;DHT22;12544;46.760;15.942;2023-12-20T07:19:09;-0.90;99.90
24412;DHT22;12544;46.760;15.942;2023-12-20T07:21:34;-1.00;99.90
24412;DHT22;12544;46.760;15.942;2023-12-20T07:24:00;-1.00;99.90
24412;DHT22;12544;46.760;15.942;2023-12-20T07:26:26;-0.90;99.90
24412;DHT22;12544;46.760;15.942;2023-12-20T07:28:51;-0.60;99.90
24412;DHT22;12544;46.760;15.942;2023-12-20T07:31:17;-0.30;99.90
24412;DHT22;12544;46.760;15.942;2023-12-20T07:33:43;-0.10;99.90
24412;DHT22;12544;46.760;15.942;2023-12-20T07:36:08;0.00;99.90
24412;DHT22;12544;46.760;15.942;2023-12-20T07:38:34;0.10;99.90
24412;DHT22;12544;46.760;15.942;2023-12-20T07:41:00;0.40;99.90
24412;DHT22;12544;46.760;15.942;2023-12-20T07:43:25;0.70;99.90
24412;DHT22;12544;46.760;15.942;2023-12-20T07:45:51;0.80;99.90
24412;DHT22;12544;46.760;15.942;2023-12-20T07:48:16;1.00;99.90
24412;DHT22;12544;46.760;15.942;2023-12-20T07:50:42;1.20;99.90
24412;DHT22;12544;46.760;15.942;2023-12-20T07:53:08;1.20;99.90
24412;DHT22;12544;46.760;15.942;2023-12-20T07:55:34;1.30;99.90
24412;DHT22;12544;46.760;15.942;2023-12-20T07:58:00;1.40;99.90
24412;DHT22;12544;46.760;15.942;2023-12-20T08:00:26;1.50;99.90
24412;DHT22;12544;46.760;15.942;2023-12-20T08:02:52;1.60;99.90
24412;DHT22;12544;46.760;15.942;2023-12-20T08:05:18;1.60;99.90
24412;DHT22;12544;46.760;15.942;2023-12-20T08:07:43;1.80;99.90
24412;DHT22;12544;46.760;15.942;2023-12-20T08:10:09;1.90;99.90
24412;DHT22;12544;46.760;15.942;2023-12-20T08:12:35;2.00;99.90
24412;DHT22;12544;46.760;15.942;2023-12-20T08:15:01;2.20;99.90
24412;DHT22;12544;46.760;15.942;2023-12-20T08:17:27;2.30;99.90
24412;DHT22;12544;46.760;15.942;2023-12-20T08:19:53;2.40;99.90
24412;DHT22;12544;46.760;15.942;2023-12-20T08:22:18;2.40;99.90
24412;DHT22;12544;46.760;15.942;2023-12-20T08:24:44;2.30;99.90
24412;DHT22;12544;46.760;15.942;2023-12-20T08:27:09;2.20;99.90
24412;DHT22;12544;46.760;15.942;2023-12-20T08:29:35;2.10;99.90
24412;DHT22;12544;46.760;15.942;2023-12-20T08:32:01;2.10;99.90
24412;DHT22;12544;46.760;15.942;2023-12-20T08:34:27;2.10;99.90
24412;DHT22;12544;46.760;15.942;2023-12-20T08:36:53;2.00;99.90
24412;DHT22;12544;46.760;15.942;2023-12-20T08:39:19;2.00;99.90
24412;DHT22;12544;46.760;15.942;2023-12-20T08:41:44;2.20;99.90
24412;DHT22;12544;46.760;15.942;2023-12-20T08:44:10;2.40;99.90
24412;DHT22;12544;46.760;15.942;2023-12-20T08:46:36;2.70;99.90
24412;DHT22;12544;46.760;15.942;2023-12-20T08:49:02;2.90;99.90
24412;DHT22;12544;46.760;15.942;2023-12-20T08:51:27;2.90;99.90
24412;DHT22;12544;46.760;15.942;2023-12-20T08:53:53;3.00;99.90
24412;DHT22;12544;46.760;15.942;2023-12-20T08:56:20;3.10;99.90
24412;DHT22;12544;46.760;15.942;2023-12-20T08:58:46;3.40;99.90
24412;DHT22;12544;46.760;15.942;2023-12-20T09:01:12;3.50;99.90
24412;DHT22;12544;46.760;15.942;2023-12-20T09:03:38;3.50;99.90
24412;DHT22;12544;46.760;15.942;2023-12-20T09:06:05;3.50;99.90
24412;DHT22;12544;46.760;15.942;2023-12-20T09:08:31;3.40;99.90
24412;DHT22;12544;46.760;15.942;2023-12-20T09:10:57;3.40;99.90
24412;DHT22;12544;46.760;15.942;2023-12-20T09:13:22;3.30;99.90
24412;DHT22;12544;46.760;15.942;2023-12-20T09:15:54;3.30;99.90
24412;DHT22;12544;46.760;15.942;2023-12-20T09:18:20;3.20;99.90
24412;DHT22;12544;46.760;15.942;2023-12-20T09:20:45;3.10;99.90
24412;DHT22;12544;46.760;15.942;2023-12-20T09:23:11;3.10;99.90
24412;DHT22;12544;46.760;15.942;2023-12-20T09:25:37;3.00;99.90
24412;DHT22;12544;46.760;15.942;2023-12-20T09:28:02;3.00;99.90
24412;DHT22;12544;46.760;15.942;2023-12-20T09:30:28;3.00;99.90
24412;DHT22;12544;46.760;15.942;2023-12-20T09:32:55;2.90;99.90
24412;DHT22;12544;46.760;15.942;2023-12-20T09:35:21;2.90;99.90
24412;DHT22;12544;46.760;15.942;2023-12-20T09:37:46;2.90;99.90
24412;DHT22;12544;46.760;15.942;2023-12-20T09:40:18;2.90;99.90
24412;DHT22;12544;46.760;15.942;2023-12-20T09:42:56;2.90;99.90
24412;DHT22;12544;46.760;15.942;2023-12-20T09:45:22;2.90;99.90
24412;DHT22;12544;46.760;15.942;2023-12-20T09:47:53;2.90;99.90
24412;DHT22;12544;46.760;15.942;2023-12-20T09:50:22;3.00;99.90
24412;DHT22;12544;46.760;15.942;2023-12-20T09:52:50;2.90;99.90
24412;DHT22;12544;46.760;15.942;2023-12-20T09:55:18;2.90;99.90
24412;DHT22;12544;46.760;15.942;2023-12-20T09:57:44;2.90;99.90
24412;DHT22;12544;46.760;15.942;2023-12-20T10:00:11;2.90;99.90
24412;DHT22;12544;46.760;15.942;2023-12-20T10:02:39;2.90;99.90
24412;DHT22;12544;46.760;15.942;2023-12-20T10:05:08;2.90;99.90
24412;DHT22;12544;46.760;15.942;2023-12-20T10:07:37;2.90;99.90
24412;DHT22;12544;46.760;15.942;2023-12-20T10:10:03;2.80;99.90
24412;DHT22;12544;46.760;15.942;2023-12-20T10:12:29;2.90;99.90
24412;DHT22;12544;46.760;15.942;2023-12-20T10:14:55;2.80;99.90
24412;DHT22;12544;46.760;15.942;2023-12-20T10:17:21;2.80;99.90
24412;DHT22;12544;46.760;15.942;2023-12-20T10:19:47;2.80;99.90
24412;DHT22;12544;46.760;15.942;2023-12-20T10:22:12;2.60;99.90
24412;DHT22;12544;46.760;15.942;2023-12-20T10:24:40;2.50;99.90
24412;DHT22;12544;46.760;15.942;2023-12-20T10:27:07;2.40;99.90
24412;DHT22;12544;46.760;15.942;2023-12-20T10:29:37;2.40;99.90
24412;DHT22;12544;46.760;15.942;2023-12-20T10:32:23;2.50;99.90
24412;DHT22;12544;46.760;15.942;2023-12-20T10:34:53;2.60;99.90
24412;DHT22;12544;46.760;15.942;2023-12-20T10:37:19;2.70;99.90
24412;DHT22;12544;46.760;15.942;2023-12-20T10:39:53;2.80;99.90
24412;DHT22;12544;46.760;15.942;2023-12-20T10:42:26;3.00;99.90
24412;DHT22;12544;46.760;15.942;2023-12-20T10:44:52;3.10;99.90
24412;DHT22;12544;46.760;15.942;2023-12-20T10:47:19;3.40;99.90
24412;DHT22;12544;46.760;15.942;2023-12-20T10:49:45;3.70;99.90
24412;DHT22;12544;46.760;15.942;2023-12-20T10:52:12;3.90;99.90
24412;DHT22;12544;46.760;15.942;2023-12-20T10:54:39;4.00;99.90
24412;DHT22;12544;46.760;15.942;2023-12-20T10:57:05;4.10;99.90
24412;DHT22;12544;46.760;15.942;2023-12-20T10:59:33;4.10;99.90
24412;DHT22;12544;46.760;15.942;2023-12-20T11:02:03;4.10;99.90
24412;DHT22;12544;46.760;15.942;2023-12-20T11:04:37;4.10;99.90
24412;DHT22;12544;46.760;15.942;2023-12-20T11:09:47;4.00;99.90
24412;DHT22;12544;46.760;15.942;2023-12-20T11:12:41;4.00;99.90
24412;DHT22;12544;46.760;15.942;2023-12-20T11:15:10;3.90;99.90
24412;DHT22;12544;46.760;15.942;2023-12-20T11:17:35;4.00;99.90
24412;DHT22;12544;46.760;15.942;2023-12-20T11:20:05;4.10;99.90
24412;DHT22;12544;46.760;15.942;2023-12-20T11:22:32;4.30;99.90
24412;DHT22;12544;46.760;15.942;2023-12-20T11:25:05;4.40;99.90
24412;DHT22;12544;46.760;15.942;2023-12-20T11:27:35;4.50;99.90
24412;DHT22;12544;46.760;15.942;2023-12-20T11:30:03;4.70;99.90
24412;DHT22;12544;46.760;15.942;2023-12-20T11:32:34;4.90;99.90
24412;DHT22;12544;46.760;15.942;2023-12-20T11:35:16;5.00;99.90
24412;DHT22;12544;46.760;15.942;2023-12-20T11:37:42;5.00;99.90
24412;DHT22;12544;46.760;15.942;2023-12-20T11:40:11;5.00;99.90
24412;DHT22;12544;46.760;15.942;2023-12-20T11:42:49;5.00;99.90
24412;DHT22;12544;46.760;15.942;2023-12-20T11:45:19;5.10;99.90
24412;DHT22;12544;46.760;15.942;2023-12-20T11:47:47;5.10;99.90
24412;DHT22;12544;46.760;15.942;2023-12-20T11:50:15;4.90;99.90
24412;DHT22;12544;46.760;15.942;2023-12-20T11:52:41;4.60;99.90
24412;DHT22;12544;46.760;15.942;2023-12-20T11:55:06;4.50;99.90
24412;DHT22;12544;46.760;15.942;2023-12-20T11:57:33;4.50;99.90
24412;DHT22;12544;46.760;15.942;2023-12-20T11:59:59;4.50;99.90
24412;DHT22;12544;46.760;15.942;2023-12-20T12:02:24;4.70;99.90
24412;DHT22;12544;46.760;15.942;2023-12-20T12:04:50;4.90;99.90
24412;DHT22;12544;46.760;15.942;2023-12-20T12:07:16;5.10;99.90
24412;DHT22;12544;46.760;15.942;2023-12-20T12:09:43;5.00;99.90
24412;DHT22;12544;46.760;15.942;2023-12-20T12:12:08;4.90;99.90
24412;DHT22;12544;46.760;15.942;2023-12-20T12:14:34;4.60;99.90
24412;DHT22;12544;46.760;15.942;2023-12-20T12:17:02;4.50;99.90
24412;DHT22;12544;46.760;15.942;2023-12-20T12:19:28;4.50;99.90
24412;DHT22;12544;46.760;15.942;2023-12-20T12:22:14;4.50;99.90
24412;DHT22;12544;46.760;15.942;2023-12-20T12:24:43;4.50;99.90
24412;DHT22;12544;46.760;15.942;2023-12-20T12:27:09;4.50;99.90
24412;DHT22;12544;46.760;15.942;2023-12-20T12:29:35;4.50;99.90
24412;DHT22;12544;46.760;15.942;2023-12-20T12:32:07;4.50;99.90
24412;DHT22;12544;46.760;15.942;2023-12-20T12:34:36;4.60;99.90
24412;DHT22;12544;46.760;15.942;2023-12-20T12:37:05;4.70;99.90
24412;DHT22;12544;46.760;15.942;2023-12-20T12:39:31;4.80;99.90
24412;DHT22;12544;46.760;15.942;2023-12-20T12:41:56;4.80;99.90
24412;DHT22;12544;46.760;15.942;2023-12-20T12:44:25;4.70;99.90
24412;DHT22;12544;46.760;15.942;2023-12-20T12:46:51;4.50;99.90
24412;DHT22;12544;46.760;15.942;2023-12-20T12:49:21;4.30;99.90
24412;DHT22;12544;46.760;15.942;2023-12-20T12:51:47;4.20;99.90
24412;DHT22;12544;46.760;15.942;2023-12-20T12:54:13;4.30;99.90
24412;DHT22;12544;46.760;15.942;2023-12-20T12:56:39;4.30;99.90
24412;DHT22;12544;46.760;15.942;2023-12-20T12:59:05;4.40;99.90
24412;DHT22;12544;46.760;15.942;2023-12-20T13:01:31;4.60;99.90
24412;DHT22;12544;46.760;15.942;2023-12-20T13:03:57;4.70;99.90
24412;DHT22;12544;46.760;15.942;2023-12-20T13:06:22;4.80;99.90
24412;DHT22;12544;46.760;15.942;2023-12-20T13:08:50;4.90;99.90
24412;DHT22;12544;46.760;15.942;2023-12-20T13:11:15;5.10;99.90
24412;DHT22;12544;46.760;15.942;2023-12-20T13:13:41;5.20;99.90
24412;DHT22;12544;46.760;15.942;2023-12-20T13:16:07;5.10;99.90
24412;DHT22;12544;46.760;15.942;2023-12-20T13:18:33;5.00;99.90
24412;DHT22;12544;46.760;15.942;2023-12-20T13:20:58;4.90;99.90
24412;DHT22;12544;46.760;15.942;2023-12-20T13:23:24;4.90;99.90
24412;DHT22;12544;46.760;15.942;2023-12-20T13:25:50;4.80;99.90
24412;DHT22;12544;46.760;15.942;2023-12-20T13:28:15;4.70;99.90
24412;DHT22;12544;46.760;15.942;2023-12-20T13:30:41;4.80;99.90
24412;DHT22;12544;46.760;15.942;2023-12-20T13:33:07;4.60;99.90
24412;DHT22;12544;46.760;15.942;2023-12-20T13:35:34;4.60;99.90
24412;DHT22;12544;46.760;15.942;2023-12-20T13:38:00;4.40;99.90
24412;DHT22;12544;46.760;15.942;2023-12-20T13:40:26;4.20;99.90
24412;DHT22;12544;46.760;15.942;2023-12-20T13:42:52;4.20;99.90
24412;DHT22;12544;46.760;15.942;2023-12-20T13:45:18;4.30;99.90
24412;DHT22;12544;46.760;15.942;2023-12-20T13:47:43;4.30;99.90
24412;DHT22;12544;46.760;15.942;2023-12-20T13:50:09;4.30;99.90
24412;DHT22;12544;46.760;15.942;2023-12-20T13:52:35;4.30;99.90
24412;DHT22;12544;46.760;15.942;2023-12-20T13:55:01;4.30;99.90
24412;DHT22;12544;46.760;15.942;2023-12-20T13:57:27;4.40;99.90
24412;DHT22;12544;46.760;15.942;2023-12-20T13:59:55;4.30;99.90
24412;DHT22;12544;46.760;15.942;2023-12-20T14:02:22;4.40;99.90
24412;DHT22;12544;46.760;15.942;2023-12-20T14:04:48;4.40;99.90
24412;DHT22;12544;46.760;15.942;2023-12-20T14:07:13;4.50;99.90
24412;DHT22;12544;46.760;15.942;2023-12-20T14:09:39;4.50;99.90
24412;DHT22;12544;46.760;15.942;2023-12-20T14:12:11;4.50;99.90
24412;DHT22;12544;46.760;15.942;2023-12-20T14:14:36;4.30;99.90
24412;DHT22;12544;46.760;15.942;2023-12-20T14:17:02;4.10;99.90
24412;DHT22;12544;46.760;15.942;2023-12-20T14:19:28;4.10;99.90
24412;DHT22;12544;46.760;15.942;2023-12-20T14:21:53;4.00;99.90
24412;DHT22;12544;46.760;15.942;2023-12-20T14:24:19;4.10;99.90
24412;DHT22;12544;46.760;15.942;2023-12-20T14:26:44;4.20;99.90
24412;DHT22;12544;46.760;15.942;2023-12-20T14:29:10;4.40;99.90
24412;DHT22;12544;46.760;15.942;2023-12-20T14:31:35;4.50;99.90
24412;DHT22;12544;46.760;15.942;2023-12-20T14:34:04;4.40;99.90
24412;DHT22;12544;46.760;15.942;2023-12-20T14:36:30;4.40;99.90
24412;DHT22;12544;46.760;15.942;2023-12-20T14:39:14;4.30;99.90
24412;DHT22;12544;46.760;15.942;2023-12-20T14:41:40;4.20;99.90
24412;DHT22;12544;46.760;15.942;2023-12-20T14:44:07;4.20;99.90
24412;DHT22;12544;46.760;15.942;2023-12-20T14:46:32;4.10;99.90
24412;DHT22;12544;46.760;15.942;2023-12-20T14:48:58;4.10;99.90
24412;DHT22;12544;46.760;15.942;2023-12-20T14:51:24;3.80;99.90
24412;DHT22;12544;46.760;15.942;2023-12-20T14:53:50;3.70;99.90
24412;DHT22;12544;46.760;15.942;2023-12-20T14:56:15;3.60;99.90
24412;DHT22;12544;46.760;15.942;2023-12-20T14:58:44;3.50;99.90
24412;DHT22;12544;46.760;15.942;2023-12-20T15:01:10;3.40;99.90
24412;DHT22;12544;46.760;15.942;2023-12-20T15:03:35;3.50;99.90
24412;DHT22;12544;46.760;15.942;2023-12-20T15:06:01;3.60;99.90
24412;DHT22;12544;46.760;15.942;2023-12-20T15:08:27;3.80;99.90
24412;DHT22;12544;46.760;15.942;2023-12-20T15:10:52;4.10;99.90
24412;DHT22;12544;46.760;15.942;2023-12-20T15:13:18;4.30;99.90
24412;DHT22;12544;46.760;15.942;2023-12-20T15:15:43;4.40;99.90
24412;DHT22;12544;46.760;15.942;2023-12-20T15:18:09;4.50;99.90
24412;DHT22;12544;46.760;15.942;2023-12-20T15:20:35;4.60;99.90
24412;DHT22;12544;46.760;15.942;2023-12-20T15:23:02;4.50;99.90